sensor_id;sensor_type;location;lat;lon;timestamp;temperature;humidity
43920;DHT22;29578;51.946;5.874;2023-05-10T00:00:24;13.60;91.40
43920;DHT22;29578;51.946;5.874;2023-05-10T00:02:49;13.60;91.30
43920;DHT22;29578;51.946;5.874;2023-05-10T00:05:15;13.60;91.40
43920;DHT22;29578;51.946;5.874;2023-05-10T00:07:41;13.60;91.30
43920;DHT22;29578;51.946;5.874;2023-05-10T00:10:10;13.60;91.30
43920;DHT22;29578;51.946;5.874;2023-05-10T00:12:36;13.60;91.40
43920;DHT22;29578;51.946;5.874;2023-05-10T00:15:02;13.60;91.30
43920;DHT22;29578;51.946;5.874;2023-05-10T00:17:28;13.60;91.40
43920;DHT22;29578;51.946;5.874;2023-05-10T00:19:53;13.50;91.30
43920;DHT22;29578;51.946;5.874;2023-05-10T00:22:20;13.70;91.40
43920;DHT22;29578;51.946;5.874;2023-05-10T00:24:46;13.60;91.40
43920;DHT22;29578;51.946;5.874;2023-05-10T00:27:11;13.60;91.40
43920;DHT22;29578;51.946;5.874;2023-05-10T00:29:37;13.60;91.40
43920;DHT22;29578;51.946;5.874;2023-05-10T00:32:03;13.60;91.40
43920;DHT22;29578;51.946;5.874;2023-05-10T00:34:28;13.60;91.40
43920;DHT22;29578;51.946;5.874;2023-05-10T00:36:54;13.60;91.40
43920;DHT22;29578;51.946;5.874;2023-05-10T00:39:20;13.60;91.40
43920;DHT22;29578;51.946;5.874;2023-05-10T00:41:45;13.50;91.40
43920;DHT22;29578;51.946;5.874;2023-05-10T00:44:11;13.60;91.40
43920;DHT22;29578;51.946;5.874;2023-05-10T00:46:37;13.50;91.40
43920;DHT22;29578;51.946;5.874;2023-05-10T00:49:02;13.50;91.40
43920;DHT22;29578;51.946;5.874;2023-05-10T00:51:28;13.50;91.40
43920;DHT22;29578;51.946;5.874;2023-05-10T00:53:54;13.60;91.40
43920;DHT22;29578;51.946;5.874;2023-05-10T00:56:21;13.60;91.40
43920;DHT22;29578;51.946;5.874;2023-05-10T00:58:49;13.60;91.40
43920;DHT22;29578;51.946;5.874;2023-05-10T01:01:14;13.50;91.40
43920;DHT22;29578;51.946;5.874;2023-05-10T01:03:40;13.50;91.40
43920;DHT22;29578;51.946;5.874;2023-05-10T01:06:07;13.50;91.40
43920;DHT22;29578;51.946;5.874;2023-05-10T01:08:33;13.50;91.40
43920;DHT22;29578;51.946;5.874;2023-05-10T01:10:59;13.50;91.40
43920;DHT22;29578;51.946;5.874;2023-05-10T01:13:42;13.60;91.50
43920;DHT22;29578;51.946;5.874;2023-05-10T01:16:08;13.50;91.40
43920;DHT22;29578;51.946;5.874;2023-05-10T01:18:38;13.60;91.40
43920;DHT22;29578;51.946;5.874;2023-05-10T01:24:17;13.50;91.40
43920;DHT22;29578;51.946;5.874;2023-05-10T01:33:01;13.50;91.40
43920;DHT22;29578;51.946;5.874;2023-05-10T01:35:47;13.50;91.40
43920;DHT22;29578;51.946;5.874;2023-05-10T01:41:11;13.50;91.40
43920;DHT22;29578;51.946;5.874;2023-05-10T01:43:53;13.50;91.40
43920;DHT22;29578;51.946;5.874;2023-05-10T01:46:28;13.40;91.40
43920;DHT22;29578;51.946;5.874;2023-05-10T01:48:58;13.50;91.40
43920;DHT22;29578;51.946;5.874;2023-05-10T01:51:29;13.50;91.40
43920;DHT22;29578;51.946;5.874;2023-05-10T01:54:02;13.50;91.40
43920;DHT22;29578;51.946;5.874;2023-05-10T01:56:29;13.60;91.40
43920;DHT22;29578;51.946;5.874;2023-05-10T01:58:56;13.50;91.40
43920;DHT22;29578;51.946;5.874;2023-05-10T02:01:24;13.50;91.40
43920;DHT22;29578;51.946;5.874;2023-05-10T02:03:53;13.50;91.40
43920;DHT22;29578;51.946;5.874;2023-05-10T02:06:22;13.50;91.50
43920;DHT22;29578;51.946;5.874;2023-05-10T02:08:50;13.60;91.50
43920;DHT22;29578;51.946;5.874;2023-05-10T02:11:17;13.50;91.50
43920;DHT22;29578;51.946;5.874;2023-05-10T02:13:44;13.60;91.50
43920;DHT22;29578;51.946;5.874;2023-05-10T02:16:12;13.50;91.50
43920;DHT22;29578;51.946;5.874;2023-05-10T02:18:40;13.50;91.50
43920;DHT22;29578;51.946;5.874;2023-05-10T02:21:07;13.60;91.50
43920;DHT22;29578;51.946;5.874;2023-05-10T02:23:34;13.50;91.60
43920;DHT22;29578;51.946;5.874;2023-05-10T02:26:02;13.60;91.60
43920;DHT22;29578;51.946;5.874;2023-05-10T02:28:29;13.50;91.60
43920;DHT22;29578;51.946;5.874;2023-05-10T02:30:55;13.50;91.60
43920;DHT22;29578;51.946;5.874;2023-05-10T02:33:21;13.50;91.60
43920;DHT22;29578;51.946;5.874;2023-05-10T02:35:48;13.50;91.60
43920;DHT22;29578;51.946;5.874;2023-05-10T02:38:15;13.50;91.60
43920;DHT22;29578;51.946;5.874;2023-05-10T02:40:43;13.50;91.60
43920;DHT22;29578;51.946;5.874;2023-05-10T02:43:12;13.50;91.60
43920;DHT22;29578;51.946;5.874;2023-05-10T02:45:40;13.40;91.60
43920;DHT22;29578;51.946;5.874;2023-05-10T02:48:07;13.50;91.60
43920;DHT22;29578;51.946;5.874;2023-05-10T02:50:33;13.50;91.60
43920;DHT22;29578;51.946;5.874;2023-05-10T02:53:02;13.40;91.60
43920;DHT22;29578;51.946;5.874;2023-05-10T02:55:35;13.50;91.70
43920;DHT22;29578;51.946;5.874;2023-05-10T02:58:02;13.50;91.70
43920;DHT22;29578;51.946;5.874;2023-05-10T03:00:28;13.40;91.60
43920;DHT22;29578;51.946;5.874;2023-05-10T03:02:54;13.40;91.70
43920;DHT22;29578;51.946;5.874;2023-05-10T03:05:20;13.40;91.70
43920;DHT22;29578;51.946;5.874;2023-05-10T03:07:46;13.40;91.70
43920;DHT22;29578;51.946;5.874;2023-05-10T03:10:12;13.40;91.70
43920;DHT22;29578;51.946;5.874;2023-05-10T03:15:55;13.30;91.70
43920;DHT22;29578;51.946;5.874;2023-05-10T03:18:28;13.30;91.70
43920;DHT22;29578;51.946;5.874;2023-05-10T03:20:59;13.30;91.70
43920;DHT22;29578;51.946;5.874;2023-05-10T03:23:32;13.20;91.70
43920;DHT22;29578;51.946;5.874;2023-05-10T03:25:59;13.20;91.70
43920;DHT22;29578;51.946;5.874;2023-05-10T03:28:26;13.20;91.70
43920;DHT22;29578;51.946;5.874;2023-05-10T03:30:53;13.20;91.80
43920;DHT22;29578;51.946;5.874;2023-05-10T03:33:19;13.20;91.80
43920;DHT22;29578;51.946;5.874;2023-05-10T03:35:45;13.20;91.80
43920;DHT22;29578;51.946;5.874;2023-05-10T03:38:12;13.20;91.80
43920;DHT22;29578;51.946;5.874;2023-05-10T03:40:37;13.10;91.80
43920;DHT22;29578;51.946;5.874;2023-05-10T03:43:04;13.20;91.80
43920;DHT22;29578;51.946;5.874;2023-05-10T03:45:29;13.20;91.80
43920;DHT22;29578;51.946;5.874;2023-05-10T03:47:57;13.20;91.80
43920;DHT22;29578;51.946;5.874;2023-05-10T03:50:22;13.20;91.80
43920;DHT22;29578;51.946;5.874;2023-05-10T03:52:48;13.20;91.80
43920;DHT22;29578;51.946;5.874;2023-05-10T03:55:14;13.10;91.80
43920;DHT22;29578;51.946;5.874;2023-05-10T03:57:39;13.10;91.80
43920;DHT22;29578;51.946;5.874;2023-05-10T04:00:05;13.10;91.80
43920;DHT22;29578;51.946;5.874;2023-05-10T04:02:31;13.10;91.80
43920;DHT22;29578;51.946;5.874;2023-05-10T04:04:57;13.10;91.80
43920;DHT22;29578;51.946;5.874;2023-05-10T04:07:22;13.10;91.80
43920;DHT22;29578;51.946;5.874;2023-05-10T04:09:48;13.10;91.80
43920;DHT22;29578;51.946;5.874;2023-05-10T04:12:14;13.10;91.80
43920;DHT22;29578;51.946;5.874;2023-05-10T04:14:39;13.10;91.80
43920;DHT22;29578;51.946;5.874;2023-05-10T04:17:05;13.10;91.80
43920;DHT22;29578;51.946;5.874;2023-05-10T04:19:31;13.10;91.80
43920;DHT22;29578;51.946;5.874;2023-05-10T04:21:57;13.10;91.80
43920;DHT22;29578;51.946;5.874;2023-05-10T04:24:23;13.10;92.10
43920;DHT22;29578;51.946;5.874;2023-05-10T04:26:49;13.00;91.80
43920;DHT22;29578;51.946;5.874;2023-05-10T04:29:14;13.10;91.80
43920;DHT22;29578;51.946;5.874;2023-05-10T04:31:40;13.00;91.80
43920;DHT22;29578;51.946;5.874;2023-05-10T04:34:06;13.10;91.80
43920;DHT22;29578;51.946;5.874;2023-05-10T04:36:31;13.10;91.80
43920;DHT22;29578;51.946;5.874;2023-05-10T04:39:00;13.00;91.80
43920;DHT22;29578;51.946;5.874;2023-05-10T04:41:28;13.10;91.80
43920;DHT22;29578;51.946;5.874;2023-05-10T04:43:53;13.00;91.80
43920;DHT22;29578;51.946;5.874;2023-05-10T04:46:19;13.10;91.80
43920;DHT22;29578;51.946;5.874;2023-05-10T04:48:45;13.10;91.80
43920;DHT22;29578;51.946;5.874;2023-05-10T04:51:10;13.10;91.80
43920;DHT22;29578;51.946;5.874;2023-05-10T04:53:36;13.10;91.80
43920;DHT22;29578;51.946;5.874;2023-05-10T04:56:02;13.10;91.80
43920;DHT22;29578;51.946;5.874;2023-05-10T04:58:27;13.10;91.80
43920;DHT22;29578;51.946;5.874;2023-05-10T05:00:53;13.10;91.80
43920;DHT22;29578;51.946;5.874;2023-05-10T05:03:19;13.10;91.80
43920;DHT22;29578;51.946;5.874;2023-05-10T05:05:44;13.10;91.80
43920;DHT22;29578;51.946;5.874;2023-05-10T05:08:10;13.10;91.80
43920;DHT22;29578;51.946;5.874;2023-05-10T05:10:35;13.10;91.80
43920;DHT22;29578;51.946;5.874;2023-05-10T05:13:01;13.20;91.80
43920;DHT22;29578;51.946;5.874;2023-05-10T05:15:27;13.10;91.80
43920;DHT22;29578;51.946;5.874;2023-05-10T05:17:53;13.10;91.80
43920;DHT22;29578;51.946;5.874;2023-05-10T05:20:18;13.20;91.80
43920;DHT22;29578;51.946;5.874;2023-05-10T05:22:44;13.20;91.80
43920;DHT22;29578;51.946;5.874;2023-05-10T05:25:10;13.20;91.70
43920;DHT22;29578;51.946;5.874;2023-05-10T05:27:37;13.20;91.70
43920;DHT22;29578;51.946;5.874;2023-05-10T05:30:03;13.20;91.70
43920;DHT22;29578;51.946;5.874;2023-05-10T05:32:29;13.20;91.70
43920;DHT22;29578;51.946;5.874;2023-05-10T05:34:55;13.20;91.80
43920;DHT22;29578;51.946;5.874;2023-05-10T05:37:21;13.20;91.80
43920;DHT22;29578;51.946;5.874;2023-05-10T05:39:48;13.20;91.80
43920;DHT22;29578;51.946;5.874;2023-05-10T05:42:14;13.30;91.80
43920;DHT22;29578;51.946;5.874;2023-05-10T05:44:41;13.20;91.70
43920;DHT22;29578;51.946;5.874;2023-05-10T05:47:06;13.20;91.70
43920;DHT22;29578;51.946;5.874;2023-05-10T05:49:32;13.30;91.70
43920;DHT22;29578;51.946;5.874;2023-05-10T05:51:59;13.30;91.70
43920;DHT22;29578;51.946;5.874;2023-05-10T05:54:26;13.30;91.70
43920;DHT22;29578;51.946;5.874;2023-05-10T05:56:54;13.30;91.70
43920;DHT22;29578;51.946;5.874;2023-05-10T05:59:20;13.30;91.70
43920;DHT22;29578;51.946;5.874;2023-05-10T06:01:46;13.30;91.70
43920;DHT22;29578;51.946;5.874;2023-05-10T06:04:12;13.40;91.70
43920;DHT22;29578;51.946;5.874;2023-05-10T06:06:38;13.40;91.70
43920;DHT22;29578;51.946;5.874;2023-05-10T06:09:03;13.40;91.70
43920;DHT22;29578;51.946;5.874;2023-05-10T06:11:29;13.40;91.70
43920;DHT22;29578;51.946;5.874;2023-05-10T06:14:02;13.40;91.70
43920;DHT22;29578;51.946;5.874;2023-05-10T06:16:29;13.40;92.00
43920;DHT22;29578;51.946;5.874;2023-05-10T06:18:54;13.40;91.70
43920;DHT22;29578;51.946;5.874;2023-05-10T06:21:20;13.50;91.70
43920;DHT22;29578;51.946;5.874;2023-05-10T06:23:46;13.50;91.60
43920;DHT22;29578;51.946;5.874;2023-05-10T06:26:12;13.50;91.60
43920;DHT22;29578;51.946;5.874;2023-05-10T06:28:39;13.50;91.60
43920;DHT22;29578;51.946;5.874;2023-05-10T06:31:05;13.60;91.70
43920;DHT22;29578;51.946;5.874;2023-05-10T06:33:32;13.60;91.70
43920;DHT22;29578;51.946;5.874;2023-05-10T06:35:58;13.60;91.70
43920;DHT22;29578;51.946;5.874;2023-05-10T06:38:23;13.50;91.60
43920;DHT22;29578;51.946;5.874;2023-05-10T06:40:49;13.60;91.70
43920;DHT22;29578;51.946;5.874;2023-05-10T06:43:15;13.50;91.70
43920;DHT22;29578;51.946;5.874;2023-05-10T06:45:41;13.60;91.70
43920;DHT22;29578;51.946;5.874;2023-05-10T06:48:07;13.60;91.70
43920;DHT22;29578;51.946;5.874;2023-05-10T06:50:35;13.60;91.70
43920;DHT22;29578;51.946;5.874;2023-05-10T06:53:03;13.60;91.70
43920;DHT22;29578;51.946;5.874;2023-05-10T06:55:29;13.50;91.70
43920;DHT22;29578;51.946;5.874;2023-05-10T06:57:57;13.60;91.70
43920;DHT22;29578;51.946;5.874;2023-05-10T07:00:36;13.60;91.70
43920;DHT22;29578;51.946;5.874;2023-05-10T07:03:51;13.60;91.70
43920;DHT22;29578;51.946;5.874;2023-05-10T07:09:55;13.60;91.70
43920;DHT22;29578;51.946;5.874;2023-05-10T07:12:25;13.70;91.70
43920;DHT22;29578;51.946;5.874;2023-05-10T07:15:00;13.70;91.70
43920;DHT22;29578;51.946;5.874;2023-05-10T07:17:44;13.60;91.70
43920;DHT22;29578;51.946;5.874;2023-05-10T07:27:34;13.60;91.70
43920;DHT22;29578;51.946;5.874;2023-05-10T07:30:02;13.60;91.60
43920;DHT22;29578;51.946;5.874;2023-05-10T07:36:57;13.70;91.70
43920;DHT22;29578;51.946;5.874;2023-05-10T07:39:29;13.60;91.60
43920;DHT22;29578;51.946;5.874;2023-05-10T07:42:04;13.70;91.60
43920;DHT22;29578;51.946;5.874;2023-05-10T07:44:39;13.70;91.60
43920;DHT22;29578;51.946;5.874;2023-05-10T07:50:24;13.80;91.60
43920;DHT22;29578;51.946;5.874;2023-05-10T07:52:50;13.70;91.60
43920;DHT22;29578;51.946;5.874;2023-05-10T07:58:41;13.90;91.60
43920;DHT22;29578;51.946;5.874;2023-05-10T08:08:10;14.10;91.50
43920;DHT22;29578;51.946;5.874;2023-05-10T08:11:16;14.20;91.40
43920;DHT22;29578;51.946;5.874;2023-05-10T08:13:56;14.20;91.30
43920;DHT22;29578;51.946;5.874;2023-05-10T08:16:21;14.40;91.20
43920;DHT22;29578;51.946;5.874;2023-05-10T08:18:47;14.40;91.20
43920;DHT22;29578;51.946;5.874;2023-05-10T08:21:14;14.40;91.10
43920;DHT22;29578;51.946;5.874;2023-05-10T08:23:41;14.50;91.40
43920;DHT22;29578;51.946;5.874;2023-05-10T08:26:07;14.50;91.40
43920;DHT22;29578;51.946;5.874;2023-05-10T08:28:32;14.50;91.20
43920;DHT22;29578;51.946;5.874;2023-05-10T08:31:00;14.50;91.30
43920;DHT22;29578;51.946;5.874;2023-05-10T08:33:40;14.50;91.20
43920;DHT22;29578;51.946;5.874;2023-05-10T08:36:09;14.60;91.30
43920;DHT22;29578;51.946;5.874;2023-05-10T08:38:41;14.60;91.20
43920;DHT22;29578;51.946;5.874;2023-05-10T08:41:20;14.70;91.10
43920;DHT22;29578;51.946;5.874;2023-05-10T08:43:52;14.70;91.10
43920;DHT22;29578;51.946;5.874;2023-05-10T08:46:20;14.60;91.40
43920;DHT22;29578;51.946;5.874;2023-05-10T08:48:48;14.70;91.10
43920;DHT22;29578;51.946;5.874;2023-05-10T08:51:17;14.60;91.10
43920;DHT22;29578;51.946;5.874;2023-05-10T08:53:44;14.60;91.10
43920;DHT22;29578;51.946;5.874;2023-05-10T08:56:16;14.60;91.10
43920;DHT22;29578;51.946;5.874;2023-05-10T08:58:50;14.60;91.20
43920;DHT22;29578;51.946;5.874;2023-05-10T09:01:32;14.60;91.20
43920;DHT22;29578;51.946;5.874;2023-05-10T09:04:14;14.60;91.20
43920;DHT22;29578;51.946;5.874;2023-05-10T09:06:42;14.70;91.20
43920;DHT22;29578;51.946;5.874;2023-05-10T09:09:13;14.80;91.10
43920;DHT22;29578;51.946;5.874;2023-05-10T09:11:40;14.80;90.90
43920;DHT22;29578;51.946;5.874;2023-05-10T09:14:06;14.90;90.90
43920;DHT22;29578;51.946;5.874;2023-05-10T09:16:32;14.90;90.90
43920;DHT22;29578;51.946;5.874;2023-05-10T09:18:58;14.80;90.90
43920;DHT22;29578;51.946;5.874;2023-05-10T09:21:24;14.80;90.90
43920;DHT22;29578;51.946;5.874;2023-05-10T09:23:51;14.90;90.90
43920;DHT22;29578;51.946;5.874;2023-05-10T09:26:22;14.90;90.90
43920;DHT22;29578;51.946;5.874;2023-05-10T09:28:51;14.90;90.90
43920;DHT22;29578;51.946;5.874;2023-05-10T09:31:18;15.10;90.90
43920;DHT22;29578;51.946;5.874;2023-05-10T09:33:45;15.20;90.90
43920;DHT22;29578;51.946;5.874;2023-05-10T09:36:11;15.20;90.70
43920;DHT22;29578;51.946;5.874;2023-05-10T09:38:51;15.30;90.60
43920;DHT22;29578;51.946;5.874;2023-05-10T09:41:20;15.40;90.50
43920;DHT22;29578;51.946;5.874;2023-05-10T09:43:47;15.70;90.50
43920;DHT22;29578;51.946;5.874;2023-05-10T09:46:16;15.90;90.40
43920;DHT22;29578;51.946;5.874;2023-05-10T09:48:45;16.10;90.10
43920;DHT22;29578;51.946;5.874;2023-05-10T09:59:51;15.70;89.90
43920;DHT22;29578;51.946;5.874;2023-05-10T10:02:19;15.50;90.20
43920;DHT22;29578;51.946;5.874;2023-05-10T10:04:49;15.40;90.30
43920;DHT22;29578;51.946;5.874;2023-05-10T10:07:22;15.40;90.40
43920;DHT22;29578;51.946;5.874;2023-05-10T10:09:49;15.40;90.40
43920;DHT22;29578;51.946;5.874;2023-05-10T10:12:16;15.40;90.40
43920;DHT22;29578;51.946;5.874;2023-05-10T10:14:42;15.40;90.40
43920;DHT22;29578;51.946;5.874;2023-05-10T10:17:09;15.40;90.40
43920;DHT22;29578;51.946;5.874;2023-05-10T10:19:35;15.40;90.30
43920;DHT22;29578;51.946;5.874;2023-05-10T10:22:05;15.40;90.30
43920;DHT22;29578;51.946;5.874;2023-05-10T10:24:38;15.50;90.30
43920;DHT22;29578;51.946;5.874;2023-05-10T10:27:19;15.60;90.20
43920;DHT22;29578;51.946;5.874;2023-05-10T10:29:49;15.60;90.20
43920;DHT22;29578;51.946;5.874;2023-05-10T10:32:28;15.80;90.10
43920;DHT22;29578;51.946;5.874;2023-05-10T10:34:55;15.80;90.00
43920;DHT22;29578;51.946;5.874;2023-05-10T10:37:22;15.80;89.90
43920;DHT22;29578;51.946;5.874;2023-05-10T10:39:48;15.70;89.70
43920;DHT22;29578;51.946;5.874;2023-05-10T10:42:50;15.70;89.70
43920;DHT22;29578;51.946;5.874;2023-05-10T10:45:16;15.70;89.80
43920;DHT22;29578;51.946;5.874;2023-05-10T10:47:42;15.60;89.80
43920;DHT22;29578;51.946;5.874;2023-05-10T10:50:09;15.60;89.70
43920;DHT22;29578;51.946;5.874;2023-05-10T10:52:45;15.70;89.80
43920;DHT22;29578;51.946;5.874;2023-05-10T11:00:20;15.90;89.70
43920;DHT22;29578;51.946;5.874;2023-05-10T11:02:59;16.00;89.40
43920;DHT22;29578;51.946;5.874;2023-05-10T11:05:46;16.10;88.80
43920;DHT22;29578;51.946;5.874;2023-05-10T11:08:29;16.20;88.50
43920;DHT22;29578;51.946;5.874;2023-05-10T11:11:03;16.10;88.60
43920;DHT22;29578;51.946;5.874;2023-05-10T11:13:34;16.10;88.50
43920;DHT22;29578;51.946;5.874;2023-05-10T11:16:12;16.00;88.60
43920;DHT22;29578;51.946;5.874;2023-05-10T11:18:38;16.20;88.60
43920;DHT22;29578;51.946;5.874;2023-05-10T11:21:04;16.10;88.70
43920;DHT22;29578;51.946;5.874;2023-05-10T11:23:33;16.10;88.60
43920;DHT22;29578;51.946;5.874;2023-05-10T11:26:16;16.10;88.40
43920;DHT22;29578;51.946;5.874;2023-05-10T11:28:49;16.10;88.60
43920;DHT22;29578;51.946;5.874;2023-05-10T11:31:17;16.10;88.40
43920;DHT22;29578;51.946;5.874;2023-05-10T11:33:47;16.20;88.40
43920;DHT22;29578;51.946;5.874;2023-05-10T11:36:16;16.40;88.30
43920;DHT22;29578;51.946;5.874;2023-05-10T11:38:45;16.50;88.00
43920;DHT22;29578;51.946;5.874;2023-05-10T12:45:34;17.50;86.30
43920;DHT22;29578;51.946;5.874;2023-05-10T12:48:01;17.40;86.20
43920;DHT22;29578;51.946;5.874;2023-05-10T12:50:30;17.50;86.30
43920;DHT22;29578;51.946;5.874;2023-05-10T12:53:04;17.50;86.30
43920;DHT22;29578;51.946;5.874;2023-05-10T12:55:30;17.60;86.00
43920;DHT22;29578;51.946;5.874;2023-05-10T12:58:04;17.60;86.00
43920;DHT22;29578;51.946;5.874;2023-05-10T13:00:41;17.70;86.00
43920;DHT22;29578;51.946;5.874;2023-05-10T13:04:04;17.80;85.80
43920;DHT22;29578;51.946;5.874;2023-05-10T13:11:03;17.70;85.70
43920;DHT22;29578;51.946;5.874;2023-05-10T13:14:38;17.70;85.80
43920;DHT22;29578;51.946;5.874;2023-05-10T13:25:21;17.80;85.30
43920;DHT22;29578;51.946;5.874;2023-05-10T13:27:47;17.70;85.50
43920;DHT22;29578;51.946;5.874;2023-05-10T13:30:12;17.60;85.60
43920;DHT22;29578;51.946;5.874;2023-05-10T13:32:38;17.50;85.90
43920;DHT22;29578;51.946;5.874;2023-05-10T13:35:04;17.40;86.10
43920;DHT22;29578;51.946;5.874;2023-05-10T13:37:31;17.30;86.20
43920;DHT22;29578;51.946;5.874;2023-05-10T13:39:57;17.10;86.50
43920;DHT22;29578;51.946;5.874;2023-05-10T13:42:23;17.00;86.90
43920;DHT22;29578;51.946;5.874;2023-05-10T13:44:49;16.80;87.20
43920;DHT22;29578;51.946;5.874;2023-05-10T13:47:15;16.70;87.40
43920;DHT22;29578;51.946;5.874;2023-05-10T13:49:44;16.60;87.60
43920;DHT22;29578;51.946;5.874;2023-05-10T13:52:10;16.50;87.90
43920;DHT22;29578;51.946;5.874;2023-05-10T13:54:36;16.50;88.00
43920;DHT22;29578;51.946;5.874;2023-05-10T13:57:03;16.40;87.90
43920;DHT22;29578;51.946;5.874;2023-05-10T13:59:29;16.40;87.90
43920;DHT22;29578;51.946;5.874;2023-05-10T14:01:57;16.50;87.90
43920;DHT22;29578;51.946;5.874;2023-05-10T14:04:23;16.40;87.80
43920;DHT22;29578;51.946;5.874;2023-05-10T14:06:49;16.40;87.90
43920;DHT22;29578;51.946;5.874;2023-05-10T14:09:14;16.30;87.80
43920;DHT22;29578;51.946;5.874;2023-05-10T14:11:41;16.30;87.80
43920;DHT22;29578;51.946;5.874;2023-05-10T14:14:09;16.30;87.70
43920;DHT22;29578;51.946;5.874;2023-05-10T14:16:34;16.20;87.70
43920;DHT22;29578;51.946;5.874;2023-05-10T14:19:00;16.30;87.80
43920;DHT22;29578;51.946;5.874;2023-05-10T14:21:27;16.30;87.80
43920;DHT22;29578;51.946;5.874;2023-05-10T14:23:54;16.30;87.60
43920;DHT22;29578;51.946;5.874;2023-05-10T14:26:21;16.40;87.50
43920;DHT22;29578;51.946;5.874;2023-05-10T14:28:47;16.40;87.40
43920;DHT22;29578;51.946;5.874;2023-05-10T14:31:12;16.40;87.30
43920;DHT22;29578;51.946;5.874;2023-05-10T14:33:39;16.40;87.40
43920;DHT22;29578;51.946;5.874;2023-05-10T14:36:08;16.50;87.20
43920;DHT22;29578;51.946;5.874;2023-05-10T14:38:34;16.40;87.20
43920;DHT22;29578;51.946;5.874;2023-05-10T14:40:59;16.40;87.90
43920;DHT22;29578;51.946;5.874;2023-05-10T14:43:25;16.30;87.20
43920;DHT22;29578;51.946;5.874;2023-05-10T14:45:52;16.40;87.40
43920;DHT22;29578;51.946;5.874;2023-05-10T14:48:18;16.40;87.40
43920;DHT22;29578;51.946;5.874;2023-05-10T14:50:44;16.40;87.20
43920;DHT22;29578;51.946;5.874;2023-05-10T14:53:10;16.40;87.20
43920;DHT22;29578;51.946;5.874;2023-05-10T14:55:35;16.40;87.20
43920;DHT22;29578;51.946;5.874;2023-05-10T14:58:02;16.40;87.10
43920;DHT22;29578;51.946;5.874;2023-05-10T15:00:29;16.40;87.00
43920;DHT22;29578;51.946;5.874;2023-05-10T15:02:55;16.40;86.80
43920;DHT22;29578;51.946;5.874;2023-05-10T15:05:20;16.40;86.80
43920;DHT22;29578;51.946;5.874;2023-05-10T15:07:46;16.40;86.60
43920;DHT22;29578;51.946;5.874;2023-05-10T15:10:12;16.40;86.30
43920;DHT22;29578;51.946;5.874;2023-05-10T15:12:38;16.40;86.40
43920;DHT22;29578;51.946;5.874;2023-05-10T15:15:05;16.40;86.30
43920;DHT22;29578;51.946;5.874;2023-05-10T15:17:31;16.40;86.30
43920;DHT22;29578;51.946;5.874;2023-05-10T15:19:56;16.40;86.20
43920;DHT22;29578;51.946;5.874;2023-05-10T15:22:22;16.50;86.30
43920;DHT22;29578;51.946;5.874;2023-05-10T15:24:48;16.40;86.10
43920;DHT22;29578;51.946;5.874;2023-05-10T15:27:13;16.40;86.20
43920;DHT22;29578;51.946;5.874;2023-05-10T15:29:39;16.30;86.20
43920;DHT22;29578;51.946;5.874;2023-05-10T15:32:05;16.30;86.40
43920;DHT22;29578;51.946;5.874;2023-05-10T15:34:30;16.30;86.40
43920;DHT22;29578;51.946;5.874;2023-05-10T15:36:56;16.30;86.50
43920;DHT22;29578;51.946;5.874;2023-05-10T15:39:22;16.20;86.60
43920;DHT22;29578;51.946;5.874;2023-05-10T15:41:48;16.10;86.60
43920;DHT22;29578;51.946;5.874;2023-05-10T15:44:14;16.20;86.80
43920;DHT22;29578;51.946;5.874;2023-05-10T15:46:39;16.10;86.70
43920;DHT22;29578;51.946;5.874;2023-05-10T15:49:05;16.10;86.70
43920;DHT22;29578;51.946;5.874;2023-05-10T15:51:32;16.20;86.70
43920;DHT22;29578;51.946;5.874;2023-05-10T15:53:59;16.20;86.40
43920;DHT22;29578;51.946;5.874;2023-05-10T15:56:27;16.20;86.40
43920;DHT22;29578;51.946;5.874;2023-05-10T15:58:53;16.20;86.20
43920;DHT22;29578;51.946;5.874;2023-05-10T16:01:18;16.20;86.10
43920;DHT22;29578;51.946;5.874;2023-05-10T16:03:44;16.20;86.10
43920;DHT22;29578;51.946;5.874;2023-05-10T16:06:09;16.20;86.10
43920;DHT22;29578;51.946;5.874;2023-05-10T16:08:35;16.30;85.90
43920;DHT22;29578;51.946;5.874;2023-05-10T16:11:04;16.30;85.80
43920;DHT22;29578;51.946;5.874;2023-05-10T16:13:29;16.30;85.60
43920;DHT22;29578;51.946;5.874;2023-05-10T16:15:55;16.40;85.50
43920;DHT22;29578;51.946;5.874;2023-05-10T16:18:22;16.50;85.40
43920;DHT22;29578;51.946;5.874;2023-05-10T16:20:48;16.60;85.20
43920;DHT22;29578;51.946;5.874;2023-05-10T16:23:14;16.60;85.00
43920;DHT22;29578;51.946;5.874;2023-05-10T16:25:40;16.70;84.90
43920;DHT22;29578;51.946;5.874;2023-05-10T16:28:06;16.70;84.80
43920;DHT22;29578;51.946;5.874;2023-05-10T16:30:31;16.80;84.70
43920;DHT22;29578;51.946;5.874;2023-05-10T16:32:58;16.90;84.60
43920;DHT22;29578;51.946;5.874;2023-05-10T16:35:24;16.90;84.50
43920;DHT22;29578;51.946;5.874;2023-05-10T16:37:50;17.00;84.20
43920;DHT22;29578;51.946;5.874;2023-05-10T16:40:16;17.00;84.00
43920;DHT22;29578;51.946;5.874;2023-05-10T16:42:41;16.90;84.00
43920;DHT22;29578;51.946;5.874;2023-05-10T16:45:07;16.90;84.10
43920;DHT22;29578;51.946;5.874;2023-05-10T16:47:35;16.90;84.30
43920;DHT22;29578;51.946;5.874;2023-05-10T16:50:02;16.80;84.40
43920;DHT22;29578;51.946;5.874;2023-05-10T16:52:28;16.70;84.30
43920;DHT22;29578;51.946;5.874;2023-05-10T16:54:54;16.70;84.40
43920;DHT22;29578;51.946;5.874;2023-05-10T16:57:20;16.70;84.40
43920;DHT22;29578;51.946;5.874;2023-05-10T16:59:46;16.70;84.50
43920;DHT22;29578;51.946;5.874;2023-05-10T17:02:13;16.70;84.50
43920;DHT22;29578;51.946;5.874;2023-05-10T17:04:38;16.60;84.60
43920;DHT22;29578;51.946;5.874;2023-05-10T17:07:04;16.60;84.70
43920;DHT22;29578;51.946;5.874;2023-05-10T17:09:30;16.60;84.70
43920;DHT22;29578;51.946;5.874;2023-05-10T17:11:55;16.60;84.70
43920;DHT22;29578;51.946;5.874;2023-05-10T17:14:21;16.60;84.80
43920;DHT22;29578;51.946;5.874;2023-05-10T17:16:47;16.60;84.80
43920;DHT22;29578;51.946;5.874;2023-05-10T17:19:13;16.60;84.80
43920;DHT22;29578;51.946;5.874;2023-05-10T17:21:39;16.50;84.60
43920;DHT22;29578;51.946;5.874;2023-05-10T17:24:04;16.50;84.70
43920;DHT22;29578;51.946;5.874;2023-05-10T17:26:30;16.50;84.70
43920;DHT22;29578;51.946;5.874;2023-05-10T17:28:56;16.50;84.80
43920;DHT22;29578;51.946;5.874;2023-05-10T17:31:22;16.50;84.80
43920;DHT22;29578;51.946;5.874;2023-05-10T17:33:48;16.50;84.80
43920;DHT22;29578;51.946;5.874;2023-05-10T17:36:13;16.30;84.80
43920;DHT22;29578;51.946;5.874;2023-05-10T17:38:39;16.30;85.00
43920;DHT22;29578;51.946;5.874;2023-05-10T17:41:04;16.30;85.00
43920;DHT22;29578;51.946;5.874;2023-05-10T17:43:30;16.30;84.90
43920;DHT22;29578;51.946;5.874;2023-05-10T17:45:56;16.30;84.90
43920;DHT22;29578;51.946;5.874;2023-05-10T17:48:21;16.30;84.90
43920;DHT22;29578;51.946;5.874;2023-05-10T17:50:49;16.20;85.00